Time;durP1;ratioP1;P1;durP2;ratioP2;P2;SDS_P1;SDS_P2;PMS_P1;PMS_P2;Temp;Humidity;BMP_temperature;BMP_pressure;BME280_temperature;BME280_humidity;BME280_pressure;Samples;Min_cycle;Max_cycle;Signal;HPM_P1;HPM_P2
2022/01/11 00:00:29;;;;;;;;;;;20.10;43.30;;;;;;5102137;27;20010;-53
2022/01/11 00:02:56;;;;;;;;;;;20.10;43.30;;;;;;5111734;27;19931;-55
2022/01/11 00:05:31;;;;;;;;;;;20.10;43.30;;;;;;5105317;27;19924;-49
2022/01/11 00:07:58;;;;;;;;;;;20.10;43.30;;;;;;5098263;28;20408;-49
2022/01/11 00:10:30;;;;;;;;;;;20.10;43.30;;;;;;5098048;28;19960;-51
2022/01/11 00:12:59;;;;;;;;;;;20.10;43.30;;;;;;5115016;27;19981;-49
2022/01/11 00:15:26;;;;;;;;;;;20.10;43.30;;;;;;5105122;27;19946;-50
2022/01/11 00:17:53;;;;;;;;;;;20.10;43.30;;;;;;5103075;27;20427;-49
2022/01/11 00:20:20;;;;;;;;;;;20.10;43.30;;;;;;5128906;27;19931;-56
2022/01/11 00:25:39;;;;;;;;;;;20.10;43.30;;;;;;5096558;27;20398;-50
2022/01/11 00:28:06;;;;;;;;;;;20.10;43.30;;;;;;5131677;27;19923;-48
2022/01/11 00:30:35;;;;;;;;;;;20.10;43.30;;;;;;5132277;27;20386;-53
2022/01/11 00:33:06;;;;;;;;;;;20.10;43.30;;;;;;5107856;27;19996;-50
2022/01/11 00:35:41;;;;;;;;;;;20.10;43.20;;;;;;5102094;27;20348;-54
2022/01/11 00:38:09;;;;;;;;;;;20.10;43.20;;;;;;5110204;27;19977;-55
2022/01/11 00:40:36;;;;;;;;;;;20.10;43.20;;;;;;5106898;27;19931;-52
2022/01/11 00:43:03;;;;;;;;;;;20.10;43.20;;;;;;5116678;27;19928;-50
2022/01/11 00:45:30;;;;;;;;;;;20.10;43.20;;;;;;5110474;27;19929;-53
2022/01/11 00:47:57;;;;;;;;;;;20.10;43.20;;;;;;5121433;27;19923;-52
2022/01/11 00:50:24;;;;;;;;;;;20.10;43.20;;;;;;5145072;27;20014;-51
2022/01/11 00:52:50;;;;;;;;;;;20.10;43.80;;;;;;5130231;27;19931;-53
2022/01/11 00:55:19;;;;;;;;;;;20.10;43.20;;;;;;5105905;27;19931;-53
2022/01/11 00:57:46;;;;;;;;;;;20.20;43.40;;;;;;5126751;27;19927;-50
2022/01/11 01:00:12;;;;;;;;;;;20.20;43.30;;;;;;5138462;27;19923;-51
2022/01/11 01:02:39;;;;;;;;;;;20.20;43.40;;;;;;5111929;27;20013;-51
2022/01/11 01:05:06;;;;;;;;;;;20.20;43.40;;;;;;5090354;28;19924;-54
2022/01/11 01:07:33;;;;;;;;;;;20.20;43.30;;;;;;5128021;27;19939;-55
2022/01/11 01:10:03;;;;;;;;;;;20.20;43.30;;;;;;5108776;27;19923;-52
2022/01/11 01:12:32;;;;;;;;;;;20.10;43.30;;;;;;5136753;27;19930;-51
2022/01/11 01:14:59;;;;;;;;;;;20.10;43.20;;;;;;5109653;27;19923;-55
2022/01/11 01:17:27;;;;;;;;;;;20.20;43.40;;;;;;5114318;27;20574;-52
2022/01/11 01:19:54;;;;;;;;;;;20.10;43.30;;;;;;5098538;27;19923;-51
2022/01/11 01:22:21;;;;;;;;;;;20.10;43.30;;;;;;5113365;27;20644;-49
2022/01/11 01:24:47;;;;;;;;;;;20.10;43.30;;;;;;5139981;27;20006;-49
2022/01/11 01:27:14;;;;;;;;;;;20.10;43.30;;;;;;5098157;27;20012;-49
2022/01/11 01:29:42;;;;;;;;;;;20.10;43.20;;;;;;5096102;27;19930;-52
2022/01/11 01:32:09;;;;;;;;;;;20.20;43.40;;;;;;5139661;27;19972;-48
2022/01/11 01:34:36;;;;;;;;;;;20.10;43.30;;;;;;5108387;27;19938;-52
2022/01/11 01:37:07;;;;;;;;;;;20.10;43.30;;;;;;5126315;27;19987;-48
2022/01/11 01:39:34;;;;;;;;;;;20.10;43.30;;;;;;5128564;27;19962;-55
2022/01/11 01:42:02;;;;;;;;;;;20.10;43.30;;;;;;5107662;27;19949;-54
2022/01/11 01:44:30;;;;;;;;;;;20.10;43.30;;;;;;5126605;27;20026;-53
2022/01/11 01:46:59;;;;;;;;;;;20.10;43.30;;;;;;5128938;27;19931;-50
2022/01/11 01:49:29;;;;;;;;;;;20.10;43.30;;;;;;5144501;27;20329;-55
2022/01/11 01:51:55;;;;;;;;;;;20.10;43.30;;;;;;5126625;27;20189;-56
2022/01/11 01:54:23;;;;;;;;;;;20.10;43.30;;;;;;5115263;27;19933;-54
2022/01/11 01:56:50;;;;;;;;;;;20.10;43.30;;;;;;5102314;28;19951;-50
2022/01/11 01:59:17;;;;;;;;;;;20.10;43.30;;;;;;5116682;27;19937;-49
2022/01/11 02:01:46;;;;;;;;;;;20.10;43.30;;;;;;5103248;27;19996;-50
2022/01/11 02:04:15;;;;;;;;;;;20.10;43.30;;;;;;5129306;27;20023;-49
2022/01/11 02:06:42;;;;;;;;;;;20.10;43.30;;;;;;5108436;27;19927;-48
2022/01/11 02:09:09;;;;;;;;;;;20.10;43.30;;;;;;5125714;27;19923;-48
2022/01/11 02:11:36;;;;;;;;;;;20.10;43.30;;;;;;5105813;28;19927;-46
2022/01/11 02:14:03;;;;;;;;;;;20.10;43.30;;;;;;5124240;27;19923;-56
2022/01/11 02:16:29;;;;;;;;;;;20.10;43.30;;;;;;5103505;28;19924;-53
2022/01/11 02:19:02;;;;;;;;;;;20.10;43.30;;;;;;5127637;27;20410;-50
2022/01/11 02:21:30;;;;;;;;;;;20.10;43.30;;;;;;5108932;28;20356;-53
2022/01/11 02:23:57;;;;;;;;;;;20.10;43.30;;;;;;5111765;28;19956;-55
2022/01/11 02:26:24;;;;;;;;;;;20.10;43.30;;;;;;5122035;28;20386;-52
2022/01/11 02:28:51;;;;;;;;;;;20.10;43.30;;;;;;5119386;27;19930;-48
2022/01/11 02:31:18;;;;;;;;;;;20.10;43.30;;;;;;5111904;27;19927;-50
2022/01/11 02:33:46;;;;;;;;;;;20.10;43.30;;;;;;5117808;27;20017;-51
2022/01/11 02:36:13;;;;;;;;;;;20.10;43.30;;;;;;5127876;27;19970;-53
2022/01/11 02:38:41;;;;;;;;;;;20.10;43.30;;;;;;5110760;27;19923;-53
2022/01/11 02:41:08;;;;;;;;;;;20.10;43.30;;;;;;5101736;27;19923;-50
2022/01/11 02:43:35;;;;;;;;;;;20.10;43.30;;;;;;5134287;27;20000;-53
2022/01/11 02:46:01;;;;;;;;;;;20.10;43.30;;;;;;5105918;27;19930;-50
2022/01/11 02:48:29;;;;;;;;;;;20.10;43.30;;;;;;5116178;27;19923;-52
2022/01/11 02:50:55;;;;;;;;;;;20.10;43.30;;;;;;5112735;27;19928;-49
2022/01/11 02:53:22;;;;;;;;;;;20.10;43.30;;;;;;5098172;27;19959;-49
2022/01/11 02:55:50;;;;;;;;;;;20.10;43.30;;;;;;5129294;27;19927;-49
2022/01/11 02:58:17;;;;;;;;;;;20.10;43.30;;;;;;5106372;27;19965;-50
2022/01/11 03:00:43;;;;;;;;;;;20.10;43.30;;;;;;5127953;27;20022;-51
2022/01/11 03:03:11;;;;;;;;;;;20.10;43.20;;;;;;5130054;27;19923;-53
2022/01/11 03:05:38;;;;;;;;;;;20.10;43.20;;;;;;5142590;27;20018;-53
2022/01/11 03:08:05;;;;;;;;;;;20.10;43.20;;;;;;5099257;28;19924;-51
2022/01/11 03:10:32;;;;;;;;;;;20.10;43.20;;;;;;5136594;27;19928;-51
2022/01/11 03:13:00;;;;;;;;;;;20.10;43.20;;;;;;5113100;27;19923;-51
2022/01/11 03:15:27;;;;;;;;;;;20.10;43.20;;;;;;5124674;27;19927;-54
2022/01/11 03:17:54;;;;;;;;;;;20.10;43.30;;;;;;5102767;27;19923;-52
2022/01/11 03:20:21;;;;;;;;;;;20.10;43.30;;;;;;5153614;27;19927;-50
2022/01/11 03:22:48;;;;;;;;;;;20.10;43.20;;;;;;5113196;27;20050;-51
2022/01/11 03:25:16;;;;;;;;;;;20.10;43.20;;;;;;5120580;27;19927;-52
2022/01/11 03:27:43;;;;;;;;;;;20.10;43.20;;;;;;5112917;27;19970;-55
2022/01/11 03:30:12;;;;;;;;;;;20.10;43.20;;;;;;5117295;27;19986;-54
2022/01/11 03:32:39;;;;;;;;;;;20.10;43.20;;;;;;5117694;27;19958;-51
2022/01/11 03:35:06;;;;;;;;;;;20.10;43.20;;;;;;5116420;27;19934;-51
2022/01/11 03:37:33;;;;;;;;;;;20.10;43.20;;;;;;5112827;27;20688;-51
2022/01/11 03:40:00;;;;;;;;;;;20.10;43.20;;;;;;5116110;27;19933;-53
2022/01/11 03:42:26;;;;;;;;;;;20.10;43.20;;;;;;5130040;27;19928;-55
2022/01/11 03:44:54;;;;;;;;;;;20.10;43.20;;;;;;5111710;27;19927;-50
2022/01/11 03:47:23;;;;;;;;;;;20.10;43.20;;;;;;5100467;28;19928;-50
2022/01/11 03:49:49;;;;;;;;;;;20.10;43.20;;;;;;5105170;28;19930;-54
2022/01/11 03:52:16;;;;;;;;;;;20.10;43.20;;;;;;5110592;28;19931;-53
2022/01/11 03:55:01;;;;;;;;;;;20.10;43.20;;;;;;5095671;27;20032;-52
2022/01/11 03:57:28;;;;;;;;;;;20.10;43.20;;;;;;5109844;28;19942;-52
2022/01/11 03:59:58;;;;;;;;;;;20.10;43.20;;;;;;5113281;27;19928;-51
2022/01/11 04:02:26;;;;;;;;;;;20.10;43.20;;;;;;5117768;27;19928;-52
2022/01/11 04:04:53;;;;;;;;;;;20.10;43.20;;;;;;5112957;27;20022;-51
2022/01/11 04:07:20;;;;;;;;;;;20.10;43.20;;;;;;5113519;27;20402;-52
2022/01/11 04:09:47;;;;;;;;;;;20.10;43.20;;;;;;5091425;28;19924;-49
2022/01/11 04:12:14;;;;;;;;;;;20.10;43.20;;;;;;5112648;27;19963;-49
2022/01/11 04:14:41;;;;;;;;;;;20.10;43.20;;;;;;5111048;27;20015;-52
2022/01/11 04:17:07;;;;;;;;;;;20.10;43.20;;;;;;5128391;27;20461;-54
2022/01/11 04:19:36;;;;;;;;;;;20.10;43.10;;;;;;5129089;27;20010;-50
2022/01/11 04:22:03;;;;;;;;;;;20.10;43.10;;;;;;5105846;27;19928;-53
2022/01/11 04:24:30;;;;;;;;;;;20.10;43.20;;;;;;5103863;27;19923;-50
2022/01/11 04:26:56;;;;;;;;;;;20.10;43.10;;;;;;5107094;27;19938;-49
2022/01/11 04:29:23;;;;;;;;;;;20.10;43.10;;;;;;5110560;27;19938;-53
2022/01/11 04:31:50;;;;;;;;;;;20.10;43.10;;;;;;5126614;27;19934;-51
2022/01/11 04:34:17;;;;;;;;;;;20.10;43.10;;;;;;5145052;27;19927;-54
2022/01/11 04:36:45;;;;;;;;;;;20.10;43.10;;;;;;5113145;27;20066;-49
2022/01/11 04:39:13;;;;;;;;;;;20.10;43.10;;;;;;5110490;27;20018;-51
2022/01/11 04:41:40;;;;;;;;;;;20.10;43.70;;;;;;5132366;27;20299;-54
2022/01/11 04:44:07;;;;;;;;;;;20.10;43.10;;;;;;5109540;27;19924;-51
2022/01/11 04:46:35;;;;;;;;;;;20.10;43.10;;;;;;5128421;27;19946;-53
2022/01/11 04:49:02;;;;;;;;;;;20.10;43.10;;;;;;5105528;27;19954;-52
2022/01/11 04:51:33;;;;;;;;;;;20.10;43.10;;;;;;5131975;27;19959;-49
2022/01/11 04:54:02;;;;;;;;;;;20.10;43.10;;;;;;5109690;27;19924;-51
2022/01/11 04:56:28;;;;;;;;;;;20.10;43.10;;;;;;5111106;27;20444;-55
2022/01/11 04:58:55;;;;;;;;;;;20.10;43.10;;;;;;5112875;27;19935;-49
2022/01/11 05:01:22;;;;;;;;;;;20.10;43.10;;;;;;5111853;27;19924;-47
2022/01/11 05:03:49;;;;;;;;;;;20.10;43.10;;;;;;5109271;27;19931;-53
2022/01/11 05:06:16;;;;;;;;;;;20.10;43.10;;;;;;5102532;27;19980;-51
2022/01/11 05:08:44;;;;;;;;;;;20.10;43.10;;;;;;5110009;27;20022;-51
2022/01/11 05:11:12;;;;;;;;;;;20.10;43.00;;;;;;5110712;27;20367;-54
2022/01/11 05:13:39;;;;;;;;;;;20.10;43.00;;;;;;5107673;27;20027;-52
2022/01/11 05:16:06;;;;;;;;;;;20.00;43.00;;;;;;5105461;28;20759;-54
2022/01/11 05:18:36;;;;;;;;;;;20.10;43.00;;;;;;5108539;27;20350;-54
2022/01/11 05:21:02;;;;;;;;;;;20.10;43.00;;;;;;5125649;27;20453;-51
2022/01/11 05:23:29;;;;;;;;;;;20.10;43.00;;;;;;5122982;27;20399;-53
2022/01/11 05:25:56;;;;;;;;;;;20.00;42.90;;;;;;5109445;27;19923;-48
2022/01/11 05:28:24;;;;;;;;;;;20.00;42.90;;;;;;5107671;27;20348;-51
2022/01/11 05:30:51;;;;;;;;;;;20.00;42.90;;;;;;5107897;28;19931;-51
2022/01/11 05:33:18;;;;;;;;;;;20.00;42.90;;;;;;5114285;27;20526;-49
2022/01/11 05:35:46;;;;;;;;;;;20.00;42.90;;;;;;5114774;27;20017;-55
2022/01/11 05:38:12;;;;;;;;;;;20.00;42.90;;;;;;5108439;27;19923;-47
2022/01/11 05:40:40;;;;;;;;;;;20.00;42.90;;;;;;5103659;28;20379;-47
2022/01/11 05:43:09;;;;;;;;;;;20.00;42.80;;;;;;5120989;27;20269;-48
2022/01/11 05:45:38;;;;;;;;;;;20.00;42.90;;;;;;5123901;27;20087;-46
2022/01/11 05:48:05;;;;;;;;;;;20.00;42.90;;;;;;5108467;27;19931;-48
2022/01/11 05:50:32;;;;;;;;;;;20.00;42.80;;;;;;5109261;27;19962;-48
2022/01/11 05:52:58;;;;;;;;;;;20.00;42.80;;;;;;5103489;27;19935;-50
2022/01/11 05:55:25;;;;;;;;;;;20.00;42.80;;;;;;5109599;27;19927;-50
2022/01/11 05:57:52;;;;;;;;;;;20.00;42.80;;;;;;5127487;27;19923;-48
2022/01/11 06:00:19;;;;;;;;;;;20.00;42.80;;;;;;5114712;27;20057;-51
2022/01/11 06:02:52;;;;;;;;;;;20.00;42.80;;;;;;5110377;27;19923;-46
2022/01/11 06:05:19;;;;;;;;;;;20.00;42.80;;;;;;5109513;27;19923;-50
2022/01/11 06:07:45;;;;;;;;;;;20.00;42.70;;;;;;5109855;27;19927;-47
2022/01/11 06:10:14;;;;;;;;;;;20.00;42.70;;;;;;5117641;27;20383;-54
2022/01/11 06:12:40;;;;;;;;;;;20.00;42.70;;;;;;5120443;27;19934;-52
2022/01/11 06:15:07;;;;;;;;;;;20.00;42.80;;;;;;5101010;28;19924;-50
2022/01/11 06:17:36;;;;;;;;;;;20.00;42.70;;;;;;5110165;27;19960;-55
2022/01/11 06:20:05;;;;;;;;;;;20.00;42.80;;;;;;5110844;28;19989;-52
2022/01/11 06:22:32;;;;;;;;;;;20.00;42.70;;;;;;5105132;28;19967;-55
2022/01/11 06:25:03;;;;;;;;;;;20.00;42.70;;;;;;5097811;28;20290;-49
2022/01/11 06:27:30;;;;;;;;;;;20.00;42.70;;;;;;5108284;28;19970;-52
2022/01/11 06:29:57;;;;;;;;;;;20.00;42.70;;;;;;5125189;28;19930;-51
2022/01/11 06:32:24;;;;;;;;;;;20.00;42.70;;;;;;5104756;28;20019;-53
2022/01/11 06:34:52;;;;;;;;;;;20.00;42.70;;;;;;5108451;28;19928;-53
2022/01/11 06:37:20;;;;;;;;;;;20.00;42.60;;;;;;5107441;28;19927;-49
2022/01/11 06:39:47;;;;;;;;;;;20.00;42.60;;;;;;5116096;28;19923;-49
2022/01/11 06:42:14;;;;;;;;;;;20.00;42.60;;;;;;5126287;28;20002;-52
2022/01/11 06:44:42;;;;;;;;;;;20.00;42.60;;;;;;5117415;28;19981;-56
2022/01/11 06:47:09;;;;;;;;;;;20.00;42.60;;;;;;5096672;28;20039;-46
2022/01/11 06:49:35;;;;;;;;;;;20.00;42.60;;;;;;5125135;27;19927;-50
2022/01/11 06:52:02;;;;;;;;;;;20.00;42.60;;;;;;5108867;28;20384;-54
2022/01/11 06:54:30;;;;;;;;;;;20.00;42.60;;;;;;5115122;28;20023;-51
2022/01/11 06:56:57;;;;;;;;;;;20.00;42.60;;;;;;5112749;28;20361;-50
2022/01/11 06:59:24;;;;;;;;;;;20.00;42.50;;;;;;5115997;27;19923;-52
2022/01/11 07:01:50;;;;;;;;;;;20.00;42.50;;;;;;5124736;28;19971;-49
2022/01/11 07:04:17;;;;;;;;;;;20.00;42.50;;;;;;5137376;27;20010;-46
2022/01/11 07:06:46;;;;;;;;;;;20.00;42.60;;;;;;5098429;28;20026;-49
2022/01/11 07:09:13;;;;;;;;;;;20.00;42.60;;;;;;5104865;28;19924;-47
2022/01/11 07:11:41;;;;;;;;;;;20.00;42.60;;;;;;5123244;28;19923;-55
2022/01/11 07:14:08;;;;;;;;;;;20.00;42.50;;;;;;5122951;28;20014;-53
2022/01/11 07:16:35;;;;;;;;;;;20.00;42.50;;;;;;5106957;28;20014;-50
2022/01/11 07:19:02;;;;;;;;;;;20.00;42.50;;;;;;5128146;27;19984;-48
2022/01/11 07:21:29;;;;;;;;;;;20.00;42.50;;;;;;5105176;27;21741;-54
2022/01/11 07:23:55;;;;;;;;;;;20.00;42.50;;;;;;5105451;27;20379;-47
2022/01/11 07:26:23;;;;;;;;;;;20.00;42.50;;;;;;5111242;27;19971;-56
2022/01/11 07:28:51;;;;;;;;;;;20.00;42.50;;;;;;5111561;27;19927;-53
2022/01/11 07:31:18;;;;;;;;;;;20.00;42.50;;;;;;5129489;27;19924;-48
2022/01/11 07:33:45;;;;;;;;;;;20.00;42.50;;;;;;5124890;27;19939;-52
2022/01/11 07:36:13;;;;;;;;;;;20.00;42.50;;;;;;5131169;27;19980;-51
2022/01/11 07:38:40;;;;;;;;;;;20.00;42.50;;;;;;5108541;27;19923;-55
2022/01/11 07:41:07;;;;;;;;;;;20.00;42.50;;;;;;5110932;27;19932;-54
2022/01/11 07:43:34;;;;;;;;;;;20.00;42.50;;;;;;5110075;27;19923;-50
2022/01/11 07:46:02;;;;;;;;;;;20.00;42.50;;;;;;5113139;27;20552;-56
2022/01/11 07:48:31;;;;;;;;;;;20.00;42.50;;;;;;5112547;27;19930;-56
2022/01/11 07:50:58;;;;;;;;;;;20.00;42.30;;;;;;5113600;27;19923;-58
2022/01/11 07:53:25;;;;;;;;;;;20.00;41.80;;;;;;5131525;27;19968;-56
2022/01/11 07:55:52;;;;;;;;;;;20.00;41.50;;;;;;5109932;27;19931;-58
2022/01/11 07:58:19;;;;;;;;;;;19.90;41.00;;;;;;5127916;27;19924;-55
2022/01/11 08:00:45;;;;;;;;;;;19.90;40.70;;;;;;5130605;27;19928;-57
2022/01/11 08:03:14;;;;;;;;;;;19.90;40.40;;;;;;5120274;27;19992;-54
2022/01/11 08:05:41;;;;;;;;;;;19.90;40.00;;;;;;5106115;27;20317;-54
2022/01/11 08:08:08;;;;;;;;;;;19.80;40.50;;;;;;5097026;27;20015;-58
2022/01/11 08:10:35;;;;;;;;;;;19.80;40.80;;;;;;5108237;27;19933;-47
2022/01/11 08:13:05;;;;;;;;;;;19.80;40.90;;;;;;5121930;27;19927;-50
2022/01/11 08:15:33;;;;;;;;;;;19.80;41.10;;;;;;5121628;27;19931;-48
2022/01/11 08:18:00;;;;;;;;;;;19.80;41.20;;;;;;5109362;27;20333;-50
2022/01/11 08:20:29;;;;;;;;;;;19.90;41.30;;;;;;5100933;27;19923;-49
2022/01/11 08:22:56;;;;;;;;;;;19.90;41.40;;;;;;5092468;27;19935;-54
2022/01/11 08:25:23;;;;;;;;;;;19.90;41.40;;;;;;5099893;27;19923;-45
2022/01/11 08:27:50;;;;;;;;;;;19.90;41.50;;;;;;5119256;27;20018;-47
2022/01/11 08:30:17;;;;;;;;;;;19.90;41.50;;;;;;5103161;27;19927;-52
2022/01/11 08:32:43;;;;;;;;;;;19.90;41.50;;;;;;5098313;28;20030;-52
2022/01/11 08:35:10;;;;;;;;;;;19.90;41.50;;;;;;5101468;27;20425;-52
2022/01/11 08:37:38;;;;;;;;;;;20.00;41.70;;;;;;5109019;27;20349;-52
2022/01/11 08:40:06;;;;;;;;;;;20.00;41.70;;;;;;5099241;27;19934;-53
2022/01/11 08:42:33;;;;;;;;;;;20.00;41.70;;;;;;5129250;27;19931;-52
2022/01/11 08:45:00;;;;;;;;;;;20.00;41.70;;;;;;5101509;27;19935;-51
2022/01/11 08:47:30;;;;;;;;;;;20.00;41.70;;;;;;5101088;27;20059;-49
2022/01/11 08:49:57;;;;;;;;;;;20.00;41.80;;;;;;5100426;27;19935;-53
2022/01/11 08:52:24;;;;;;;;;;;20.00;41.80;;;;;;5100989;27;19946;-46
2022/01/11 08:54:52;;;;;;;;;;;20.00;41.80;;;;;;5105434;27;20087;-50
2022/01/11 08:57:20;;;;;;;;;;;20.00;41.90;;;;;;5102626;27;20370;-46
2022/01/11 08:59:47;;;;;;;;;;;20.10;41.90;;;;;;5100844;27;19934;-50
2022/01/11 09:02:14;;;;;;;;;;;20.00;41.90;;;;;;5100186;27;19934;-53
2022/01/11 09:04:41;;;;;;;;;;;20.10;41.90;;;;;;5119988;27;19934;-48
2022/01/11 09:07:08;;;;;;;;;;;20.10;42.00;;;;;;5121252;27;19927;-53
2022/01/11 09:09:35;;;;;;;;;;;20.10;42.30;;;;;;5095798;28;19977;-46
2022/01/11 09:12:05;;;;;;;;;;;20.10;42.00;;;;;;5102275;27;19928;-52
2022/01/11 09:14:33;;;;;;;;;;;20.10;42.00;;;;;;5101838;27;19987;-49
2022/01/11 09:17:02;;;;;;;;;;;20.10;42.00;;;;;;5123810;27;20009;-46
2022/01/11 09:19:29;;;;;;;;;;;20.10;42.00;;;;;;5083323;27;20262;-52
2022/01/11 09:21:55;;;;;;;;;;;20.10;42.00;;;;;;5104705;27;19955;-54
2022/01/11 09:24:29;;;;;;;;;;;20.10;42.00;;;;;;5120955;27;19930;-50
2022/01/11 09:26:56;;;;;;;;;;;20.10;42.00;;;;;;5099136;28;19938;-54
2022/01/11 09:29:24;;;;;;;;;;;20.10;42.00;;;;;;5102964;27;20666;-52
2022/01/11 09:31:51;;;;;;;;;;;20.20;42.10;;;;;;5104708;27;19953;-47
2022/01/11 09:34:17;;;;;;;;;;;20.20;42.10;;;;;;5102928;27;20557;-49
2022/01/11 09:36:44;;;;;;;;;;;20.10;42.00;;;;;;5102711;27;19968;-52
2022/01/11 09:39:11;;;;;;;;;;;20.20;42.70;;;;;;5118746;27;19963;-51
2022/01/11 09:41:38;;;;;;;;;;;20.20;42.10;;;;;;5115159;27;20000;-54
2022/01/11 09:44:05;;;;;;;;;;;20.20;42.10;;;;;;5099175;27;20278;-55
2022/01/11 09:46:33;;;;;;;;;;;20.20;42.10;;;;;;5105090;27;19976;-53
2022/01/11 09:49:00;;;;;;;;;;;20.20;42.10;;;;;;5105614;27;19972;-51
2022/01/11 09:51:27;;;;;;;;;;;20.20;42.20;;;;;;5120564;27;20446;-51
2022/01/11 09:53:54;;;;;;;;;;;20.20;42.20;;;;;;5113969;27;19928;-49
2022/01/11 09:56:21;;;;;;;;;;;20.20;42.20;;;;;;5108327;27;20001;-49
2022/01/11 09:58:50;;;;;;;;;;;20.20;42.20;;;;;;5091611;27;19924;-49
2022/01/11 10:01:16;;;;;;;;;;;20.20;42.20;;;;;;5123866;27;19923;-48
2022/01/11 10:03:58;;;;;;;;;;;20.20;42.20;;;;;;5107585;27;20014;-49
2022/01/11 10:06:25;;;;;;;;;;;20.20;42.20;;;;;;5104675;28;19923;-47
2022/01/11 10:08:52;;;;;;;;;;;20.20;42.20;;;;;;5100517;27;19926;-52
2022/01/11 10:11:33;;;;;;;;;;;20.20;42.20;;;;;;5116060;27;20371;-54
2022/01/11 10:14:00;;;;;;;;;;;20.20;42.20;;;;;;5105323;27;19945;-51
2022/01/11 10:16:28;;;;;;;;;;;20.20;42.30;;;;;;5104848;28;19975;-51
2022/01/11 10:18:55;;;;;;;;;;;20.30;42.40;;;;;;5097556;28;19927;-55
2022/01/11 10:21:33;;;;;;;;;;;20.30;42.40;;;;;;5101308;28;19924;-52
2022/01/11 10:24:00;;;;;;;;;;;20.30;42.40;;;;;;5097495;28;19942;-50
2022/01/11 10:26:42;;;;;;;;;;;20.30;42.50;;;;;;5109306;28;19935;-48
2022/01/11 10:29:24;;;;;;;;;;;20.30;42.50;;;;;;5099806;28;19938;-52
2022/01/11 10:31:51;;;;;;;;;;;20.30;42.50;;;;;;5092928;28;19929;-55
2022/01/11 10:34:19;;;;;;;;;;;20.30;42.50;;;;;;5104554;28;19927;-49
2022/01/11 10:36:47;;;;;;;;;;;20.30;42.50;;;;;;5107588;28;19934;-47
2022/01/11 10:39:28;;;;;;;;;;;20.30;42.50;;;;;;5103637;28;19930;-47
2022/01/11 10:41:56;;;;;;;;;;;20.30;42.50;;;;;;5106134;28;19966;-52
2022/01/11 10:44:41;;;;;;;;;;;20.30;42.50;;;;;;5123614;28;19935;-50
2022/01/11 10:47:08;;;;;;;;;;;20.30;42.50;;;;;;5102338;28;19923;-52
2022/01/11 10:49:37;;;;;;;;;;;20.30;42.50;;;;;;5107409;28;19934;-46
2022/01/11 10:52:18;;;;;;;;;;;20.30;43.20;;;;;;5103088;27;20000;-52
2022/01/11 10:54:45;;;;;;;;;;;20.30;42.60;;;;;;5138227;27;19942;-56
2022/01/11 10:57:16;;;;;;;;;;;20.30;42.60;;;;;;5113812;27;19962;-51
2022/01/11 10:59:43;;;;;;;;;;;20.30;42.50;;;;;;5113999;27;20360;-49
2022/01/11 11:02:12;;;;;;;;;;;20.30;42.50;;;;;;5134247;27;19923;-50
2022/01/11 11:04:39;;;;;;;;;;;20.30;42.50;;;;;;5124394;27;20418;-53
2022/01/11 11:07:13;;;;;;;;;;;20.30;42.50;;;;;;5106459;28;20006;-47
2022/01/11 11:09:48;;;;;;;;;;;20.30;42.50;;;;;;5143644;27;19931;-45
2022/01/11 11:12:15;;;;;;;;;;;20.30;42.50;;;;;;5128147;27;19994;-47
2022/01/11 11:14:49;;;;;;;;;;;20.30;42.50;;;;;;5112828;27;19946;-49
2022/01/11 11:17:25;;;;;;;;;;;20.30;42.50;;;;;;5108492;27;19927;-50
2022/01/11 11:19:56;;;;;;;;;;;20.30;42.50;;;;;;5105893;27;20002;-51
2022/01/11 11:22:24;;;;;;;;;;;20.40;42.60;;;;;;5104546;27;19924;-48
2022/01/11 11:24:52;;;;;;;;;;;20.40;42.60;;;;;;5125067;27;19927;-50
2022/01/11 11:27:20;;;;;;;;;;;20.30;42.50;;;;;;5096274;27;19971;-45
2022/01/11 11:29:47;;;;;;;;;;;20.40;42.60;;;;;;5100904;27;20094;-48
2022/01/11 11:32:16;;;;;;;;;;;20.40;42.60;;;;;;5109982;27;19933;-48
2022/01/11 11:34:44;;;;;;;;;;;20.40;42.50;;;;;;5093562;27;20436;-51
2022/01/11 11:37:11;;;;;;;;;;;20.40;42.50;;;;;;5111270;27;19930;-45
2022/01/11 11:39:38;;;;;;;;;;;20.40;42.60;;;;;;5110309;27;20009;-46
2022/01/11 11:42:08;;;;;;;;;;;20.40;42.50;;;;;;5113178;27;20441;-50
2022/01/11 11:44:36;;;;;;;;;;;20.40;42.50;;;;;;5111400;27;19932;-47
2022/01/11 11:47:05;;;;;;;;;;;20.40;42.50;;;;;;5109473;27;19924;-50
2022/01/11 11:49:42;;;;;;;;;;;20.40;42.50;;;;;;5114756;27;20022;-45
2022/01/11 11:52:15;;;;;;;;;;;20.30;42.40;;;;;;5108706;27;19924;-48
2022/01/11 11:54:47;;;;;;;;;;;20.40;42.50;;;;;;5100588;27;19923;-51
2022/01/11 11:57:15;;;;;;;;;;;20.40;42.50;;;;;;5123270;27;19938;-51
2022/01/11 11:59:41;;;;;;;;;;;20.30;42.40;;;;;;5089972;27;20014;-47
2022/01/11 12:02:10;;;;;;;;;;;20.40;42.50;;;;;;5126240;27;20273;-54
2022/01/11 12:04:53;;;;;;;;;;;20.40;42.50;;;;;;5104854;27;20022;-46
2022/01/11 12:07:31;;;;;;;;;;;20.40;42.50;;;;;;5103977;27;20384;-50
2022/01/11 12:09:58;;;;;;;;;;;20.40;42.50;;;;;;5128196;27;19930;-48
2022/01/11 12:12:49;;;;;;;;;;;20.40;42.50;;;;;;5128004;27;20010;-52
2022/01/11 12:15:45;;;;;;;;;;;20.40;42.50;;;;;;5098852;27;19995;-50
2022/01/11 12:18:13;;;;;;;;;;;20.40;42.50;;;;;;5116790;27;19927;-52
2022/01/11 12:20:43;;;;;;;;;;;20.40;42.50;;;;;;5111238;27;19924;-53
2022/01/11 12:23:10;;;;;;;;;;;20.30;42.40;;;;;;5105342;27;20026;-53
2022/01/11 12:25:42;;;;;;;;;;;20.40;42.50;;;;;;5107558;27;19934;-51
2022/01/11 12:28:09;;;;;;;;;;;20.30;42.40;;;;;;5106233;27;20086;-55
2022/01/11 12:30:37;;;;;;;;;;;20.30;42.40;;;;;;5103535;27;20319;-50
2022/01/11 12:33:08;;;;;;;;;;;20.40;42.50;;;;;;5107965;27;19966;-51
2022/01/11 12:35:35;;;;;;;;;;;20.40;42.50;;;;;;5123334;27;20030;-51
2022/01/11 12:38:08;;;;;;;;;;;20.40;42.50;;;;;;5094290;28;19924;-54
2022/01/11 12:40:40;;;;;;;;;;;20.40;42.40;;;;;;5098180;27;19971;-52
2022/01/11 12:43:07;;;;;;;;;;;20.30;42.30;;;;;;5102342;27;20148;-52
2022/01/11 12:45:53;;;;;;;;;;;20.30;42.30;;;;;;5120295;27;19951;-56
2022/01/11 12:48:34;;;;;;;;;;;20.30;42.40;;;;;;5110085;27;19931;-46
2022/01/11 12:51:03;;;;;;;;;;;20.40;42.50;;;;;;5098303;27;19924;-51
2022/01/11 12:53:30;;;;;;;;;;;20.30;42.40;;;;;;5109085;27;19934;-48
2022/01/11 12:55:57;;;;;;;;;;;20.30;42.50;;;;;;5108091;27;19934;-48
2022/01/11 12:58:24;;;;;;;;;;;20.40;42.50;;;;;;5110568;27;19941;-49
2022/01/11 13:00:51;;;;;;;;;;;20.30;42.40;;;;;;5128053;27;20014;-51
2022/01/11 13:03:18;;;;;;;;;;;20.40;42.50;;;;;;5128579;27;19932;-52
2022/01/11 13:05:45;;;;;;;;;;;20.40;42.50;;;;;;5103445;27;20015;-45
2022/01/11 13:08:14;;;;;;;;;;;20.40;42.50;;;;;;5108534;27;19935;-46
2022/01/11 13:10:40;;;;;;;;;;;20.40;42.50;;;;;;5103150;27;19923;-49
2022/01/11 13:13:10;;;;;;;;;;;20.40;42.50;;;;;;5140565;27;20055;-49
2022/01/11 13:15:38;;;;;;;;;;;20.40;42.50;;;;;;5124065;27;19927;-53
2022/01/11 13:18:08;;;;;;;;;;;20.40;42.50;;;;;;5101391;27;19923;-46
2022/01/11 13:20:35;;;;;;;;;;;20.40;42.50;;;;;;5105584;27;19929;-48
2022/01/11 13:23:25;;;;;;;;;;;20.40;42.50;;;;;;5107680;27;19968;-52
2022/01/11 13:25:54;;;;;;;;;;;20.40;42.50;;;;;;5102145;27;20027;-46
2022/01/11 13:28:21;;;;;;;;;;;20.40;42.50;;;;;;5100459;27;19927;-50
2022/01/11 13:30:50;;;;;;;;;;;20.40;42.50;;;;;;5123081;27;20000;-49
2022/01/11 13:33:24;;;;;;;;;;;20.40;42.50;;;;;;5107013;27;19927;-49
2022/01/11 13:35:51;;;;;;;;;;;20.40;42.50;;;;;;5104702;27;20397;-46
2022/01/11 13:38:18;;;;;;;;;;;20.40;42.50;;;;;;5101200;27;20017;-46
2022/01/11 13:40:45;;;;;;;;;;;20.40;42.50;;;;;;5110842;27;19965;-49
2022/01/11 13:43:14;;;;;;;;;;;20.40;42.50;;;;;;5124415;27;19970;-51
2022/01/11 13:45:41;;;;;;;;;;;20.40;42.50;;;;;;5103862;27;20014;-50
2022/01/11 13:48:12;;;;;;;;;;;20.40;42.50;;;;;;5108390;27;19927;-50
2022/01/11 13:50:49;;;;;;;;;;;20.40;42.50;;;;;;5105018;27;19959;-46
2022/01/11 13:53:23;;;;;;;;;;;20.40;42.50;;;;;;5098912;28;20026;-49
2022/01/11 13:55:50;;;;;;;;;;;20.40;42.50;;;;;;5124523;27;20060;-52
2022/01/11 13:58:18;;;;;;;;;;;20.40;42.50;;;;;;5108590;27;19970;-50
2022/01/11 14:00:44;;;;;;;;;;;20.40;42.50;;;;;;5102681;27;19924;-46
2022/01/11 14:03:12;;;;;;;;;;;20.40;42.50;;;;;;5106543;27;19927;-50
2022/01/11 14:05:38;;;;;;;;;;;20.40;42.50;;;;;;5107344;27;20014;-47
2022/01/11 14:08:09;;;;;;;;;;;20.40;42.40;;;;;;5125128;27;19980;-48
2022/01/11 14:10:37;;;;;;;;;;;20.40;42.40;;;;;;5123566;27;20504;-53
2022/01/11 14:13:05;;;;;;;;;;;20.40;42.40;;;;;;5107217;27;19927;-47
2022/01/11 14:15:33;;;;;;;;;;;20.40;42.40;;;;;;5104181;28;19928;-49
2022/01/11 14:18:00;;;;;;;;;;;20.40;42.40;;;;;;5101682;28;19919;-54
2022/01/11 14:20:29;;;;;;;;;;;20.40;42.40;;;;;;5108017;27;20086;-47
2022/01/11 14:22:56;;;;;;;;;;;20.40;42.40;;;;;;5103005;28;19931;-50
2022/01/11 14:25:23;;;;;;;;;;;20.40;42.40;;;;;;5107848;28;19931;-54